createdAt,value
2018-05-31T00:02:04.042Z,22.96
2018-05-31T00:04:31.532Z,23.42
2018-05-31T00:06:58.995Z,23.75
2018-05-31T00:09:26.475Z,23.50
2018-05-31T00:11:53.961Z,23.01
2018-05-31T00:14:21.430Z,23.23
2018-05-31T00:16:48.882Z,23.32
2018-05-31T00:19:16.356Z,23.86
2018-05-31T00:21:43.863Z,23.89
2018-05-31T00:24:11.331Z,23.61
2018-05-31T00:26:38.780Z,23.61
2018-05-31T00:29:06.247Z,23.93
2018-05-31T00:31:33.697Z,23.78
2018-05-31T00:34:01.142Z,23.73
2018-05-31T00:36:28.626Z,23.26
2018-05-31T00:38:56.070Z,23.16
2018-05-31T00:41:23.569Z,23.36
2018-05-31T00:43:51.018Z,23.47
2018-05-31T00:46:18.461Z,23.40
2018-05-31T00:48:45.941Z,23.44
2018-05-31T00:51:13.398Z,22.97
2018-05-31T00:53:40.945Z,23.00
2018-05-31T00:56:17.266Z,23.20
2018-05-31T00:58:44.737Z,23.33
2018-05-31T01:01:12.201Z,23.28
2018-05-31T01:03:39.661Z,23.31
2018-05-31T01:06:07.149Z,22.92
2018-05-31T01:08:34.805Z,22.75
2018-05-31T01:11:02.265Z,22.79
2018-05-31T01:13:29.729Z,22.75
2018-05-31T01:15:57.289Z,22.68
2018-05-31T01:18:24.778Z,22.93
2018-05-31T01:20:52.293Z,22.93
2018-05-31T01:23:19.766Z,22.73
2018-05-31T01:25:47.230Z,22.77
2018-05-31T01:28:14.697Z,22.82
2018-05-31T01:30:42.194Z,22.66
2018-05-31T01:33:09.645Z,22.73
2018-05-31T01:35:37.134Z,22.64
2018-05-31T01:38:16.360Z,22.73
2018-05-31T01:40:43.811Z,23.13
2018-05-31T01:43:11.284Z,22.94
2018-05-31T01:45:38.930Z,22.96
2018-05-31T01:48:06.385Z,23.03
2018-05-31T01:50:33.848Z,23.41
2018-05-31T01:53:01.322Z,22.98
2018-05-31T01:55:28.808Z,23.24
2018-05-31T01:57:56.305Z,22.96
2018-05-31T02:00:23.757Z,23.23
2018-05-31T02:02:52.331Z,22.98
2018-05-31T02:05:19.830Z,22.97
2018-05-31T02:07:47.310Z,22.75
2018-05-31T02:10:14.758Z,22.47
2018-05-31T02:12:42.234Z,22.52
2018-05-31T02:15:09.677Z,22.56
2018-05-31T02:17:42.075Z,22.64
2018-05-31T02:20:09.992Z,23.05
2018-05-31T02:22:37.629Z,23.03
2018-05-31T02:25:05.160Z,22.92
2018-05-31T02:27:32.629Z,22.67
2018-05-31T02:30:00.112Z,22.66
2018-05-31T02:32:27.569Z,22.87
2018-05-31T02:34:55.027Z,22.82
2018-05-31T02:37:22.514Z,22.50
2018-05-31T02:39:50.066Z,22.55
2018-05-31T02:42:17.517Z,23.24
2018-05-31T02:44:45.034Z,22.99
2018-05-31T02:47:12.473Z,22.28
2018-05-31T02:49:39.928Z,22.18
2018-05-31T02:52:07.455Z,21.91
2018-05-31T02:54:34.920Z,22.31
2018-05-31T02:57:02.416Z,22.42
2018-05-31T02:59:29.896Z,22.07
2018-05-31T03:01:57.358Z,21.95
2018-05-31T03:04:24.833Z,21.78
2018-05-31T03:06:52.292Z,21.98
2018-05-31T03:09:19.735Z,22.68
2018-05-31T03:11:47.205Z,22.16
2018-05-31T03:14:14.683Z,22.67
2018-05-31T03:16:42.170Z,22.30
2018-05-31T03:19:09.678Z,22.37
2018-05-31T03:21:37.186Z,22.56
2018-05-31T03:24:04.645Z,21.54
2018-05-31T03:26:32.177Z,21.74
2018-05-31T03:28:59.650Z,22.24
2018-05-31T03:31:27.455Z,21.90
2018-05-31T03:33:54.947Z,21.70
2018-05-31T03:36:22.493Z,21.78
2018-05-31T03:38:49.955Z,21.53
2018-05-31T03:41:17.418Z,21.48
2018-05-31T03:43:44.873Z,21.45
2018-05-31T03:46:12.340Z,21.50
2018-05-31T03:48:39.843Z,21.71
2018-05-31T03:51:07.329Z,21.83
2018-05-31T03:53:34.780Z,21.55
2018-05-31T03:56:02.255Z,21.91
2018-05-31T03:58:29.721Z,22.35
2018-05-31T04:00:57.185Z,22.36
2018-05-31T04:03:24.669Z,22.87
2018-05-31T04:05:52.169Z,23.48
2018-05-31T04:08:19.637Z,23.63
2018-05-31T04:10:47.087Z,23.44
2018-05-31T04:13:14.554Z,23.31
2018-05-31T04:15:42.030Z,22.91
2018-05-31T04:18:09.561Z,22.65
2018-05-31T04:20:37.053Z,22.83
2018-05-31T04:23:04.501Z,22.78
2018-05-31T04:25:31.998Z,22.81
2018-05-31T04:27:59.485Z,22.99
2018-05-31T04:30:26.947Z,22.94
2018-05-31T04:32:54.385Z,23.15
2018-05-31T04:35:21.846Z,23.00
2018-05-31T04:37:49.351Z,23.31
2018-05-31T04:40:16.833Z,23.02
2018-05-31T04:42:44.333Z,23.23
2018-05-31T04:45:11.799Z,23.09
2018-05-31T04:47:39.249Z,23.22
2018-05-31T04:50:06.715Z,23.06
2018-05-31T04:52:34.163Z,23.15
2018-05-31T04:55:01.630Z,23.01
2018-05-31T04:57:29.083Z,23.26
2018-05-31T04:59:56.520Z,23.29
2018-05-31T05:02:23.990Z,23.10
2018-05-31T05:04:51.456Z,23.26
2018-05-31T05:07:18.924Z,23.24
2018-05-31T05:09:46.413Z,23.47
2018-05-31T05:12:13.879Z,24.44
2018-05-31T05:14:41.353Z,23.78
2018-05-31T05:17:08.817Z,23.83
2018-05-31T05:19:36.284Z,23.81
2018-05-31T05:22:03.760Z,23.81
2018-05-31T05:24:31.241Z,24.29
2018-05-31T05:26:58.695Z,24.68
2018-05-31T05:29:26.165Z,24.79
2018-05-31T05:31:53.640Z,24.91
2018-05-31T05:34:21.103Z,24.95
2018-05-31T05:36:48.606Z,24.55
2018-05-31T05:39:16.074Z,24.64
2018-05-31T05:41:43.548Z,23.97
2018-05-31T05:44:11.030Z,24.05
2018-05-31T05:46:38.534Z,24.34
2018-05-31T05:49:06.008Z,24.43
2018-05-31T05:51:33.464Z,24.62
2018-05-31T05:54:01.026Z,25.04
2018-05-31T05:56:28.533Z,24.88
2018-05-31T05:58:55.933Z,25.33
2018-05-31T06:01:23.409Z,25.51
2018-05-31T06:03:50.876Z,25.45
2018-05-31T06:06:18.338Z,24.94
2018-05-31T06:08:45.844Z,25.06
2018-05-31T06:11:13.314Z,24.98
2018-05-31T06:13:40.802Z,24.77
2018-05-31T06:16:08.272Z,24.51
2018-05-31T06:18:35.719Z,24.81
2018-05-31T06:21:03.195Z,24.69
2018-05-31T06:23:30.691Z,25.05
2018-05-31T06:25:58.167Z,25.58
2018-05-31T06:28:25.649Z,25.51
2018-05-31T06:30:53.121Z,25.00
2018-05-31T06:33:20.592Z,24.99
2018-05-31T06:35:48.059Z,25.02
2018-05-31T06:38:15.533Z,24.98
2018-05-31T06:40:42.981Z,25.22
2018-05-31T06:43:10.453Z,25.13
2018-05-31T06:45:37.916Z,25.60
2018-05-31T06:48:05.357Z,25.75
2018-05-31T06:50:32.829Z,25.56
2018-05-31T06:53:00.305Z,25.36
2018-05-31T06:55:27.783Z,25.42
2018-05-31T06:57:55.233Z,25.57
2018-05-31T07:00:22.702Z,25.75
2018-05-31T07:02:50.797Z,25.98
2018-05-31T07:05:18.241Z,25.95
2018-05-31T07:07:45.713Z,26.36
2018-05-31T07:10:13.217Z,26.68
2018-05-31T07:12:40.737Z,26.55
2018-05-31T07:15:08.180Z,26.84
2018-05-31T07:17:35.648Z,26.19
2018-05-31T07:20:03.106Z,26.47
2018-05-31T07:22:30.579Z,26.97
2018-05-31T07:24:58.042Z,26.89
2018-05-31T07:27:25.508Z,27.06
2018-05-31T07:29:53.094Z,27.12
2018-05-31T07:32:20.538Z,27.08
2018-05-31T07:34:48.015Z,26.91
2018-05-31T07:37:15.473Z,26.69
2018-05-31T07:39:43.028Z,26.11
2018-05-31T07:42:10.524Z,26.26
2018-05-31T07:44:37.964Z,25.98
2018-05-31T07:47:05.424Z,25.79
2018-05-31T07:49:32.909Z,25.81
2018-05-31T07:52:00.422Z,25.89
2018-05-31T07:54:27.883Z,25.80
2018-05-31T07:56:55.401Z,26.04
2018-05-31T07:59:22.918Z,26.28
2018-05-31T08:01:50.407Z,26.23
2018-05-31T08:04:17.859Z,26.06
2018-05-31T08:06:45.344Z,26.57
2018-05-31T08:09:12.811Z,26.82
2018-05-31T08:11:40.244Z,26.26
2018-05-31T08:14:07.746Z,26.29
2018-05-31T08:16:35.285Z,26.63
2018-05-31T08:19:02.763Z,26.54
2018-05-31T08:21:30.301Z,27.02
2018-05-31T08:23:57.779Z,27.38
2018-05-31T08:26:25.232Z,27.90
2018-05-31T08:28:52.682Z,28.06
2018-05-31T08:31:20.164Z,27.82
2018-05-31T08:33:47.620Z,27.69
2018-05-31T08:36:15.086Z,27.87
2018-05-31T08:38:42.553Z,28.02
2018-05-31T08:41:09.998Z,27.83
2018-05-31T08:43:37.504Z,28.25
2018-05-31T08:46:04.959Z,28.80
2018-05-31T08:48:32.469Z,28.80
2018-05-31T08:50:59.959Z,28.42
2018-05-31T08:53:27.430Z,28.80
2018-05-31T08:55:54.889Z,28.54
2018-05-31T08:58:22.781Z,28.91
2018-05-31T09:00:50.235Z,28.69
2018-05-31T09:03:17.773Z,28.89
2018-05-31T09:05:45.213Z,28.74
2018-05-31T09:08:12.681Z,28.90
2018-05-31T09:10:40.174Z,28.84
2018-05-31T09:13:07.732Z,28.83
2018-05-31T09:15:35.185Z,28.35
2018-05-31T09:18:02.642Z,28.71
2018-05-31T09:20:30.102Z,28.22
2018-05-31T09:22:57.623Z,29.48
2018-05-31T09:25:25.074Z,29.62
2018-05-31T09:27:52.661Z,30.19
2018-05-31T09:30:20.154Z,30.08
2018-05-31T09:32:47.636Z,29.63
2018-05-31T09:35:15.079Z,29.92
2018-05-31T09:37:42.548Z,29.91
2018-05-31T09:40:10.145Z,29.67
2018-05-31T09:42:37.947Z,29.76
2018-05-31T09:45:05.467Z,29.67
2018-05-31T09:47:32.957Z,29.75
2018-05-31T09:50:00.507Z,30.13
2018-05-31T09:52:27.977Z,30.08
2018-05-31T09:54:55.430Z,30.25
2018-05-31T09:57:22.919Z,29.81
2018-05-31T09:59:50.397Z,30.03
2018-05-31T10:02:17.839Z,30.38
2018-05-31T10:04:45.286Z,30.39
2018-05-31T10:07:12.722Z,30.30
2018-05-31T10:09:40.224Z,30.04
2018-05-31T10:12:08.512Z,30.62
2018-05-31T10:14:35.966Z,30.71
2018-05-31T10:17:03.413Z,30.32
2018-05-31T10:19:30.887Z,30.55
2018-05-31T10:21:58.321Z,30.05
2018-05-31T10:24:25.770Z,30.34
2018-05-31T10:26:53.237Z,30.01
2018-05-31T10:29:20.694Z,29.88
2018-05-31T10:31:48.480Z,30.45
2018-05-31T10:34:15.978Z,30.67
2018-05-31T10:36:43.488Z,30.52
2018-05-31T10:39:11.198Z,31.24
2018-05-31T10:41:38.682Z,31.39
2018-05-31T10:44:06.163Z,31.47
2018-05-31T10:46:33.643Z,31.36
2018-05-31T10:49:01.071Z,31.34
2018-05-31T10:51:28.533Z,31.64
2018-05-31T10:53:56.025Z,30.89
2018-05-31T10:56:23.505Z,31.46
2018-05-31T10:58:50.994Z,31.48
2018-05-31T11:01:18.505Z,31.88
2018-05-31T11:03:46.144Z,31.17
2018-05-31T11:06:13.625Z,31.74
2018-05-31T11:08:41.125Z,32.36
2018-05-31T11:11:08.598Z,31.77
2018-05-31T11:13:36.042Z,31.38
2018-05-31T11:16:03.496Z,31.83
2018-05-31T11:18:30.990Z,32.28
2018-05-31T11:20:58.443Z,32.51
2018-05-31T11:23:25.889Z,32.57
2018-05-31T11:25:53.367Z,32.44
2018-05-31T11:28:20.926Z,32.15
2018-05-31T11:30:48.401Z,32.45
2018-05-31T11:33:15.928Z,32.23
2018-05-31T11:35:43.375Z,32.79
2018-05-31T11:38:10.845Z,32.94
2018-05-31T11:40:38.272Z,33.81
2018-05-31T11:43:05.729Z,33.93
2018-05-31T11:45:33.201Z,33.90
2018-05-31T11:48:00.674Z,33.93
2018-05-31T11:50:28.169Z,34.35
2018-05-31T11:52:55.629Z,35.52
2018-05-31T11:55:23.088Z,36.31
2018-05-31T11:57:50.564Z,37.46
2018-05-31T12:00:18.028Z,38.14
2018-05-31T12:02:45.488Z,38.29
2018-05-31T12:05:13.042Z,39.50
2018-05-31T12:07:40.547Z,40.69
2018-05-31T12:10:08.008Z,41.88
2018-05-31T12:12:35.533Z,42.40
2018-05-31T12:15:03.004Z,42.28
2018-05-31T12:17:30.500Z,43.25
2018-05-31T12:19:57.942Z,43.30
2018-05-31T12:22:25.436Z,43.35
2018-05-31T12:24:52.912Z,41.87
2018-05-31T12:27:20.359Z,43.28
2018-05-31T12:29:47.824Z,44.40
2018-05-31T12:32:15.296Z,43.58
2018-05-31T12:34:42.776Z,44.48
2018-05-31T12:37:10.223Z,43.79
2018-05-31T12:39:37.793Z,44.94
2018-05-31T12:42:05.248Z,44.24
2018-05-31T12:44:32.860Z,45.67
2018-05-31T12:47:00.384Z,45.92
2018-05-31T12:49:27.890Z,46.38
2018-05-31T12:51:55.381Z,46.39
2018-05-31T12:54:22.855Z,46.72
2018-05-31T12:56:50.405Z,45.99
2018-05-31T12:59:17.961Z,47.13
2018-05-31T13:01:45.418Z,46.38
2018-05-31T13:06:45.031Z,46.35
2018-05-31T13:09:12.485Z,48.20
2018-05-31T13:11:39.921Z,46.25
2018-05-31T13:14:07.379Z,45.81
2018-05-31T13:16:34.895Z,45.39
2018-05-31T13:19:02.338Z,47.04
2018-05-31T13:21:29.817Z,45.58
2018-05-31T13:23:57.325Z,43.71
2018-05-31T13:26:24.792Z,39.75
2018-05-31T13:28:52.282Z,36.14
2018-05-31T13:31:19.722Z,34.47
2018-05-31T13:33:47.161Z,35.05
2018-05-31T13:36:14.605Z,38.32
2018-05-31T13:38:42.115Z,41.38
2018-05-31T13:41:09.563Z,42.12
2018-05-31T13:43:37.021Z,42.51
2018-05-31T13:46:04.469Z,43.58
2018-05-31T13:48:31.927Z,45.22
2018-05-31T13:50:59.384Z,45.33
2018-05-31T13:53:26.816Z,44.19
2018-05-31T13:55:54.255Z,42.31
2018-05-31T13:58:21.729Z,42.83
2018-05-31T14:00:49.376Z,41.62
2018-05-31T14:03:16.864Z,42.04
2018-05-31T14:05:44.321Z,39.84
2018-05-31T14:08:11.757Z,39.51
2018-05-31T14:10:39.240Z,39.91
2018-05-31T14:13:06.682Z,39.66
2018-05-31T14:15:34.118Z,39.81
2018-05-31T14:18:01.576Z,40.19
2018-05-31T14:20:29.028Z,41.12
2018-05-31T14:22:56.490Z,39.31
2018-05-31T14:25:23.948Z,38.64
2018-05-31T14:27:51.382Z,36.68
2018-05-31T14:30:18.855Z,35.57
2018-05-31T14:32:46.302Z,36.33
2018-05-31T14:35:13.759Z,36.97
2018-05-31T14:37:41.234Z,38.11
2018-05-31T14:40:08.675Z,38.30
2018-05-31T14:42:36.157Z,40.03
2018-05-31T14:45:03.610Z,41.36
2018-05-31T14:47:31.076Z,40.43
2018-05-31T14:49:58.569Z,40.08
2018-05-31T14:52:26.021Z,38.66
2018-05-31T14:54:53.495Z,37.14
2018-05-31T14:57:20.928Z,36.15
2018-05-31T14:59:48.455Z,35.20
2018-05-31T15:02:15.905Z,34.75
2018-05-31T15:04:43.360Z,34.84
2018-05-31T15:07:10.804Z,35.27
2018-05-31T15:09:38.228Z,35.64
2018-05-31T15:12:05.701Z,37.63
2018-05-31T15:14:33.155Z,36.63
2018-05-31T15:17:00.702Z,36.87
2018-05-31T15:19:28.144Z,35.78
2018-05-31T15:21:55.621Z,36.00
2018-05-31T15:24:23.119Z,36.19
2018-05-31T15:26:50.566Z,36.56
2018-05-31T15:29:18.000Z,35.87
2018-05-31T15:31:45.477Z,35.88
2018-05-31T15:34:12.961Z,35.81
2018-05-31T15:36:40.444Z,34.68
2018-05-31T15:39:07.952Z,34.38
2018-05-31T15:41:35.429Z,34.47
2018-05-31T15:44:02.906Z,33.59
2018-05-31T15:46:30.410Z,33.88
2018-05-31T15:48:57.838Z,33.50
2018-05-31T15:51:25.329Z,33.10
2018-05-31T15:53:52.806Z,33.86
2018-05-31T15:56:20.284Z,32.23
2018-05-31T15:58:47.722Z,31.36
2018-05-31T16:01:15.226Z,31.28
2018-05-31T16:03:42.785Z,31.37
2018-05-31T16:06:10.343Z,31.10
2018-05-31T16:08:37.797Z,31.84
2018-05-31T16:11:05.281Z,31.30
2018-05-31T16:13:32.730Z,30.94
2018-05-31T16:16:00.314Z,30.85
2018-05-31T16:18:27.777Z,31.14
2018-05-31T16:20:55.236Z,30.79
2018-05-31T16:23:22.731Z,30.72
2018-05-31T16:25:50.183Z,30.75
2018-05-31T16:28:17.739Z,30.17
2018-05-31T16:30:45.204Z,29.97
2018-05-31T16:33:12.677Z,30.30
2018-05-31T16:35:40.244Z,30.33
2018-05-31T16:38:07.813Z,30.86
2018-05-31T16:40:35.309Z,31.14
2018-05-31T16:43:02.756Z,31.10
2018-05-31T16:45:30.237Z,31.42
2018-05-31T16:47:57.729Z,30.83
2018-05-31T16:50:25.194Z,31.14
2018-05-31T16:52:52.737Z,31.34
2018-05-31T16:55:20.241Z,32.77
2018-05-31T16:57:47.725Z,34.73
2018-05-31T17:00:15.196Z,35.58
2018-05-31T17:02:42.696Z,36.53
2018-05-31T17:05:10.237Z,36.01
2018-05-31T17:07:37.774Z,34.98
2018-05-31T17:10:05.209Z,35.13
2018-05-31T17:12:32.653Z,35.92
2018-05-31T17:15:00.183Z,35.21
2018-05-31T17:17:27.628Z,35.71
2018-05-31T17:19:55.174Z,35.61
2018-05-31T17:22:22.655Z,36.21
2018-05-31T17:24:50.115Z,35.98
2018-05-31T17:27:17.595Z,35.37
2018-05-31T17:29:45.069Z,35.65
2018-05-31T17:32:12.523Z,34.90
2018-05-31T17:34:40.012Z,35.66
2018-05-31T17:37:07.452Z,36.59
2018-05-31T17:39:34.886Z,36.50
2018-05-31T17:42:02.370Z,36.54
2018-05-31T17:44:29.842Z,36.29
2018-05-31T17:46:57.376Z,34.91
2018-05-31T17:49:24.838Z,33.97
2018-05-31T17:51:52.289Z,32.83
2018-05-31T17:54:19.741Z,31.63
2018-05-31T17:56:47.224Z,31.08
2018-05-31T17:59:14.665Z,30.01
2018-05-31T18:01:42.138Z,29.66
2018-05-31T18:04:09.612Z,29.34
2018-05-31T18:06:37.067Z,28.69
2018-05-31T18:09:05.118Z,28.50
2018-05-31T18:11:32.575Z,28.26
2018-05-31T18:14:00.047Z,28.06
2018-05-31T18:16:27.516Z,27.76
2018-05-31T18:18:55.097Z,27.73
2018-05-31T18:21:22.560Z,27.94
2018-05-31T18:23:50.049Z,27.98
2018-05-31T18:26:17.551Z,28.10
2018-05-31T18:28:45.003Z,28.36
2018-05-31T18:31:12.544Z,28.23
2018-05-31T18:33:40.010Z,28.28
2018-05-31T18:36:07.484Z,28.26
2018-05-31T18:38:35.050Z,27.98
2018-05-31T18:41:02.496Z,27.87
2018-05-31T18:43:30.060Z,27.60
2018-05-31T18:45:57.521Z,27.42
2018-05-31T18:48:25.057Z,27.51
2018-05-31T18:50:52.636Z,27.51
2018-05-31T18:53:20.069Z,27.42
2018-05-31T18:55:47.519Z,27.28
2018-05-31T18:58:14.954Z,27.12
2018-05-31T19:00:43.085Z,27.33
2018-05-31T19:03:10.585Z,27.30
2018-05-31T19:05:38.062Z,27.31
2018-05-31T19:08:05.551Z,27.20
2018-05-31T19:10:33.052Z,27.21
2018-05-31T19:13:06.145Z,27.13
2018-05-31T19:15:33.647Z,27.21
2018-05-31T19:18:01.115Z,27.12
2018-05-31T19:20:30.205Z,26.99
2018-05-31T19:22:57.668Z,26.95
2018-05-31T19:25:25.124Z,26.76
2018-05-31T19:27:52.563Z,26.80
2018-05-31T19:30:25.741Z,26.67
2018-05-31T19:32:53.204Z,26.67
2018-05-31T19:35:26.395Z,26.92
2018-05-31T19:37:53.892Z,26.92
2018-05-31T19:40:21.374Z,27.11
2018-05-31T19:42:54.551Z,27.05
2018-05-31T19:45:22.002Z,26.99
2018-05-31T19:47:49.477Z,26.96
2018-05-31T19:50:16.955Z,26.99
2018-05-31T19:52:50.108Z,27.09
2018-05-31T19:55:17.666Z,26.98
2018-05-31T19:57:50.934Z,26.92
2018-05-31T20:00:24.091Z,26.56
2018-05-31T20:02:57.086Z,26.38
2018-05-31T20:05:24.909Z,26.44
2018-05-31T20:07:52.345Z,26.27
2018-05-31T20:10:19.841Z,26.21
2018-05-31T20:12:47.287Z,26.33
2018-05-31T20:15:14.730Z,26.19
2018-05-31T20:17:42.180Z,26.20
2018-05-31T20:20:09.687Z,26.20
2018-05-31T20:22:37.146Z,26.32
2018-05-31T20:25:04.614Z,26.37
2018-05-31T20:27:32.309Z,26.32
2018-05-31T20:29:59.800Z,26.44
2018-05-31T20:32:27.337Z,26.39
2018-05-31T20:34:54.937Z,26.35
2018-05-31T20:37:22.431Z,26.23
2018-05-31T20:39:49.892Z,26.16
2018-05-31T20:42:17.339Z,26.09
2018-05-31T20:44:44.813Z,25.95
2018-05-31T20:47:12.284Z,25.72
2018-05-31T20:49:39.755Z,25.60
2018-05-31T20:52:07.429Z,25.81
2018-05-31T20:54:34.874Z,25.90
2018-05-31T20:57:02.459Z,26.20
2018-05-31T20:59:29.954Z,26.36
2018-05-31T21:01:57.406Z,26.30
2018-05-31T21:04:24.884Z,26.32
2018-05-31T21:06:52.342Z,26.28
2018-05-31T21:09:19.803Z,26.28
2018-05-31T21:11:47.346Z,26.29
2018-05-31T21:14:14.783Z,26.33
2018-05-31T21:16:43.093Z,26.19
2018-05-31T21:19:10.576Z,26.17
2018-05-31T21:21:38.108Z,26.17
2018-05-31T21:24:05.680Z,26.33
2018-05-31T21:26:33.137Z,26.02
2018-05-31T21:29:02.471Z,26.35
2018-05-31T21:31:31.963Z,26.32
2018-05-31T21:33:59.539Z,26.20
2018-05-31T21:36:27.105Z,26.12
2018-05-31T21:38:54.537Z,26.19
2018-05-31T21:41:21.992Z,26.44
2018-05-31T21:43:50.292Z,26.11
2018-05-31T21:46:18.288Z,26.01
2018-05-31T21:48:45.965Z,26.10
2018-05-31T21:51:13.456Z,25.81
2018-05-31T21:53:44.361Z,25.75
2018-05-31T21:56:12.107Z,25.79
2018-05-31T21:58:40.662Z,25.81
2018-05-31T22:01:08.238Z,25.85
2018-05-31T22:03:36.802Z,25.60
2018-05-31T22:06:04.302Z,25.39
2018-05-31T22:08:31.765Z,25.56
2018-05-31T22:10:59.310Z,25.02
2018-05-31T22:13:27.727Z,24.98
2018-05-31T22:15:56.416Z,24.95
2018-05-31T22:18:23.955Z,24.98
2018-05-31T22:20:53.650Z,22.90
2018-05-31T22:23:22.301Z,18.04
2018-05-31T22:25:49.777Z,16.65
2018-05-31T22:28:18.480Z,16.30
2018-05-31T22:30:46.292Z,16.35
2018-05-31T22:33:14.027Z,16.45
2018-05-31T22:35:44.060Z,16.38
2018-05-31T22:38:12.742Z,16.24
2018-05-31T22:40:41.877Z,16.18
2018-05-31T22:43:09.479Z,16.23
2018-05-31T22:45:38.173Z,16.24
2018-05-31T22:48:06.421Z,16.23
2018-05-31T22:50:34.435Z,16.15
2018-05-31T22:53:02.067Z,16.59
2018-05-31T22:55:29.629Z,16.53
2018-05-31T22:57:57.138Z,16.31
2018-05-31T23:00:24.772Z,16.42
2018-05-31T23:02:54.095Z,16.60
2018-05-31T23:05:22.739Z,16.81
2018-05-31T23:07:51.401Z,16.59
2018-05-31T23:10:18.983Z,16.62
2018-05-31T23:12:46.431Z,16.65
2018-05-31T23:15:13.959Z,16.67
2018-05-31T23:17:41.423Z,16.76
2018-05-31T23:20:08.901Z,16.73
2018-05-31T23:22:37.037Z,16.92
2018-05-31T23:25:05.367Z,16.60
2018-05-31T23:27:33.583Z,17.20
2018-05-31T23:30:01.332Z,17.74
2018-05-31T23:32:28.971Z,17.73
2018-05-31T23:34:56.926Z,17.99
2018-05-31T23:37:24.606Z,19.26
2018-05-31T23:39:52.130Z,19.39
2018-05-31T23:42:19.735Z,19.35
2018-05-31T23:44:47.205Z,19.70
2018-05-31T23:47:16.124Z,19.89
2018-05-31T23:49:43.797Z,19.99
2018-05-31T23:52:11.246Z,19.97
2018-05-31T23:54:38.700Z,19.57
2018-05-31T23:57:06.278Z,19.07
2018-05-31T23:59:33.718Z,19.12
